DLH9XK EDDF-EDDM
Flight info
| Callsign | DLH9XK |
|---|---|
| Flight time | 0h 31m |
| Altitude | 23000 |
| Route | CINDY2D CINDY Z74 HAREM T104 ROKIL ROKIL1B |
| Aircraft | A320/M-SDE2E3FGIJ1LORWXYZ/HB1 |
Departure
| Time | 2026-04-18 07:59 |
|---|---|
| Airport | Frankfurt Main Airport (EDDF) |
Arrival
| Time | 2026-04-18 08:31 |
|---|---|
| Airport | Munich Airport (EDDM) |
| Time | Latitude | Longitude | Altitude | Speed | Heading |
|---|---|---|---|---|---|
| 2026-04-18 07:35 | 50.04112 | 8.55826 | 356 ft | 0 kts | 159° |
| 2026-04-18 07:53 | 50.04098 | 8.55835 | 358 ft | 7 kts | 159° |
| 2026-04-18 07:54 | 50.04050 | 8.55860 | 353 ft | 7 kts | 172° |
| 2026-04-18 07:54 | 50.04015 | 8.55809 | 352 ft | 8 kts | 249° |
| 2026-04-18 07:54 | 50.03993 | 8.55719 | 358 ft | 13 kts | 250° |
| 2026-04-18 07:54 | 50.03954 | 8.55554 | 351 ft | 18 kts | 250° |
| 2026-04-18 07:55 | 50.03910 | 8.55369 | 353 ft | 19 kts | 249° |
| 2026-04-18 07:55 | 50.03864 | 8.55180 | 356 ft | 18 kts | 250° |
| 2026-04-18 07:55 | 50.03817 | 8.54982 | 353 ft | 21 kts | 250° |
| 2026-04-18 07:55 | 50.03766 | 8.54770 | 354 ft | 21 kts | 249° |
| 2026-04-18 07:56 | 50.03712 | 8.54542 | 348 ft | 24 kts | 249° |
| 2026-04-18 07:56 | 50.03651 | 8.54287 | 345 ft | 24 kts | 250° |
| 2026-04-18 07:56 | 50.03589 | 8.54030 | 348 ft | 27 kts | 250° |
| 2026-04-18 07:56 | 50.03531 | 8.53786 | 339 ft | 22 kts | 250° |
| 2026-04-18 07:57 | 50.03478 | 8.53567 | 338 ft | 22 kts | 249° |
| 2026-04-18 07:57 | 50.03425 | 8.53345 | 336 ft | 22 kts | 249° |
| 2026-04-18 07:57 | 50.03369 | 8.53110 | 334 ft | 25 kts | 250° |
| 2026-04-18 07:57 | 50.03322 | 8.52910 | 333 ft | 19 kts | 250° |
| 2026-04-18 07:58 | 50.03254 | 8.52631 | 332 ft | 9 kts | 245° |
| 2026-04-18 07:58 | 50.03207 | 8.52595 | 334 ft | 8 kts | 182° |
| 2026-04-18 07:58 | 50.03024 | 8.52597 | 333 ft | 62 kts | 179° |
| 2026-04-18 07:59 | 50.02348 | 8.52604 | 334 ft | 129 kts | 180° |
| 2026-04-18 07:59 | 50.01292 | 8.52617 | 510 ft | 163 kts | 179° |
| 2026-04-18 07:59 | 50.00142 | 8.52632 | 1250 ft | 164 kts | 179° |
| 2026-04-18 07:59 | 49.98978 | 8.52641 | 1889 ft | 175 kts | 180° |
| 2026-04-18 08:00 | 49.97696 | 8.52649 | 2335 ft | 193 kts | 178° |
| 2026-04-18 08:00 | 49.96431 | 8.53466 | 2786 ft | 211 kts | 135° |
| 2026-04-18 08:00 | 49.95599 | 8.55433 | 3429 ft | 224 kts | 118° |
| 2026-04-18 08:00 | 49.94878 | 8.57623 | 4242 ft | 231 kts | 119° |
| 2026-04-18 08:01 | 49.94125 | 8.59820 | 5096 ft | 236 kts | 116° |
| 2026-04-18 08:01 | 49.93802 | 8.62396 | 5716 ft | 257 kts | 91° |
| 2026-04-18 08:01 | 49.93779 | 8.65281 | 6310 ft | 276 kts | 94° |
| 2026-04-18 08:01 | 49.93414 | 8.68197 | 7227 ft | 277 kts | 112° |
| 2026-04-18 08:02 | 49.92446 | 8.70770 | 8146 ft | 279 kts | 133° |
| 2026-04-18 08:02 | 49.90967 | 8.72720 | 9058 ft | 282 kts | 146° |
| 2026-04-18 08:02 | 49.89362 | 8.74510 | 9963 ft | 287 kts | 141° |
| 2026-04-18 08:02 | 49.87979 | 8.76803 | 10617 ft | 301 kts | 127° |
| 2026-04-18 08:03 | 49.86864 | 8.79707 | 10950 ft | 326 kts | 120° |
| 2026-04-18 08:03 | 49.85725 | 8.82888 | 11216 ft | 349 kts | 120° |
| 2026-04-18 08:03 | 49.84520 | 8.86257 | 11682 ft | 363 kts | 120° |
| 2026-04-18 08:03 | 49.83281 | 8.89710 | 12364 ft | 370 kts | 120° |
| 2026-04-18 08:04 | 49.82016 | 8.93219 | 13066 ft | 377 kts | 120° |
| 2026-04-18 08:04 | 49.80723 | 8.96786 | 13768 ft | 383 kts | 120° |
| 2026-04-18 08:04 | 49.79401 | 9.00413 | 14409 ft | 389 kts | 120° |
| 2026-04-18 08:04 | 49.78060 | 9.04080 | 15064 ft | 394 kts | 120° |
| 2026-04-18 08:05 | 49.76742 | 9.07820 | 15724 ft | 398 kts | 115° |
| 2026-04-18 08:05 | 49.75776 | 9.11857 | 16377 ft | 403 kts | 105° |
| 2026-04-18 08:05 | 49.75042 | 9.16052 | 17005 ft | 406 kts | 110° |
| 2026-04-18 08:05 | 49.73798 | 9.19984 | 17621 ft | 410 kts | 123° |
| 2026-04-18 08:06 | 49.72058 | 9.23480 | 18242 ft | 412 kts | 134° |
| 2026-04-18 08:06 | 49.70115 | 9.26773 | 18798 ft | 416 kts | 133° |
| 2026-04-18 08:06 | 49.68184 | 9.30126 | 19343 ft | 420 kts | 133° |
| 2026-04-18 08:06 | 49.66258 | 9.33531 | 19872 ft | 423 kts | 132° |
| 2026-04-18 08:07 | 49.64322 | 9.36975 | 20421 ft | 426 kts | 132° |
| 2026-04-18 08:07 | 49.62377 | 9.40439 | 20942 ft | 429 kts | 132° |
| 2026-04-18 08:07 | 49.60416 | 9.43926 | 21456 ft | 432 kts | 132° |
| 2026-04-18 08:07 | 49.58436 | 9.47428 | 21962 ft | 435 kts | 133° |
| 2026-04-18 08:08 | 49.56437 | 9.50944 | 22459 ft | 438 kts | 133° |
| 2026-04-18 08:08 | 49.54420 | 9.54480 | 22956 ft | 441 kts | 133° |
| 2026-04-18 08:08 | 49.52389 | 9.58036 | 23158 ft | 444 kts | 133° |
| 2026-04-18 08:08 | 49.50316 | 9.61654 | 23194 ft | 457 kts | 133° |
| 2026-04-18 08:09 | 49.48199 | 9.65344 | 23191 ft | 462 kts | 133° |
| 2026-04-18 08:09 | 49.46067 | 9.69057 | 23191 ft | 464 kts | 133° |
| 2026-04-18 08:09 | 49.43931 | 9.72775 | 23192 ft | 464 kts | 133° |
| 2026-04-18 08:09 | 49.41821 | 9.76445 | 23192 ft | 464 kts | 133° |
| 2026-04-18 08:10 | 49.39684 | 9.80159 | 23193 ft | 464 kts | 133° |
| 2026-04-18 08:10 | 49.37546 | 9.83881 | 23193 ft | 464 kts | 133° |
| 2026-04-18 08:10 | 49.35408 | 9.87594 | 23192 ft | 465 kts | 133° |
| 2026-04-18 08:10 | 49.33261 | 9.91307 | 23193 ft | 465 kts | 133° |
| 2026-04-18 08:11 | 49.31111 | 9.95013 | 23182 ft | 465 kts | 133° |
| 2026-04-18 08:11 | 49.28958 | 9.98710 | 23184 ft | 465 kts | 133° |
| 2026-04-18 08:11 | 49.26805 | 10.02404 | 23187 ft | 465 kts | 133° |
| 2026-04-18 08:11 | 49.24646 | 10.06098 | 23188 ft | 465 kts | 133° |
| 2026-04-18 08:12 | 49.22491 | 10.09782 | 23190 ft | 465 kts | 133° |
| 2026-04-18 08:12 | 49.20326 | 10.13452 | 23189 ft | 464 kts | 134° |
| 2026-04-18 08:12 | 49.18115 | 10.17048 | 23197 ft | 464 kts | 135° |
| 2026-04-18 08:12 | 49.15862 | 10.20585 | 23195 ft | 464 kts | 136° |
| 2026-04-18 08:13 | 49.13588 | 10.24084 | 23193 ft | 464 kts | 136° |
| 2026-04-18 08:13 | 49.11307 | 10.27571 | 23191 ft | 464 kts | 136° |
| 2026-04-18 08:13 | 49.09032 | 10.31063 | 23207 ft | 464 kts | 136° |
| 2026-04-18 08:13 | 49.06763 | 10.34571 | 23208 ft | 465 kts | 136° |
| 2026-04-18 08:14 | 49.04502 | 10.38092 | 23140 ft | 465 kts | 135° |
| 2026-04-18 08:14 | 49.02247 | 10.41619 | 22876 ft | 464 kts | 135° |
| 2026-04-18 08:14 | 49.00005 | 10.45126 | 22533 ft | 460 kts | 135° |
| 2026-04-18 08:14 | 48.97776 | 10.48603 | 21707 ft | 457 kts | 135° |
| 2026-04-18 08:15 | 48.95561 | 10.52044 | 20965 ft | 453 kts | 135° |
| 2026-04-18 08:15 | 48.93362 | 10.55451 | 20232 ft | 450 kts | 135° |
| 2026-04-18 08:15 | 48.91180 | 10.58825 | 19538 ft | 446 kts | 135° |
| 2026-04-18 08:15 | 48.89011 | 10.62175 | 18866 ft | 443 kts | 135° |
| 2026-04-18 08:16 | 48.86857 | 10.65490 | 18164 ft | 439 kts | 135° |
| 2026-04-18 08:16 | 48.84727 | 10.68766 | 17541 ft | 432 kts | 135° |
| 2026-04-18 08:16 | 48.82631 | 10.71989 | 16950 ft | 426 kts | 135° |
| 2026-04-18 08:16 | 48.80564 | 10.75165 | 16378 ft | 420 kts | 135° |
| 2026-04-18 08:17 | 48.78525 | 10.78294 | 15808 ft | 414 kts | 135° |
| 2026-04-18 08:17 | 48.76511 | 10.81382 | 15235 ft | 409 kts | 135° |
| 2026-04-18 08:17 | 48.74516 | 10.84437 | 14638 ft | 406 kts | 135° |
| 2026-04-18 08:17 | 48.72545 | 10.87466 | 14075 ft | 403 kts | 135° |
| 2026-04-18 08:18 | 48.70590 | 10.90477 | 13711 ft | 400 kts | 135° |
| 2026-04-18 08:18 | 48.68662 | 10.93444 | 13371 ft | 390 kts | 135° |
| 2026-04-18 08:18 | 48.66780 | 10.96321 | 13049 ft | 379 kts | 135° |
| 2026-04-18 08:18 | 48.64952 | 10.99106 | 12739 ft | 368 kts | 135° |
| 2026-04-18 08:19 | 48.63170 | 11.01813 | 12427 ft | 358 kts | 135° |
| 2026-04-18 08:19 | 48.61434 | 11.04445 | 12117 ft | 349 kts | 135° |
| 2026-04-18 08:19 | 48.59742 | 11.07005 | 11817 ft | 340 kts | 135° |
| 2026-04-18 08:19 | 48.58088 | 11.09501 | 11519 ft | 332 kts | 135° |
| 2026-04-18 08:20 | 48.56472 | 11.11936 | 11218 ft | 322 kts | 135° |
| 2026-04-18 08:20 | 48.54934 | 11.14249 | 10921 ft | 303 kts | 135° |
| 2026-04-18 08:20 | 48.53477 | 11.16441 | 10630 ft | 288 kts | 135° |
| 2026-04-18 08:20 | 48.52088 | 11.18523 | 10341 ft | 274 kts | 135° |
| 2026-04-18 08:21 | 48.50766 | 11.20498 | 10045 ft | 262 kts | 135° |
| 2026-04-18 08:21 | 48.49510 | 11.22367 | 9733 ft | 254 kts | 135° |
| 2026-04-18 08:21 | 48.48259 | 11.24224 | 9417 ft | 251 kts | 135° |
| 2026-04-18 08:21 | 48.47018 | 11.26059 | 9094 ft | 249 kts | 135° |
| 2026-04-18 08:22 | 48.45753 | 11.27851 | 8779 ft | 249 kts | 143° |
| 2026-04-18 08:22 | 48.44176 | 11.28816 | 8500 ft | 246 kts | 174° |
| 2026-04-18 08:22 | 48.42498 | 11.28451 | 8239 ft | 246 kts | 200° |
| 2026-04-18 08:22 | 48.40972 | 11.27275 | 8003 ft | 247 kts | 212° |
| 2026-04-18 08:23 | 48.39542 | 11.25846 | 7745 ft | 247 kts | 211° |
| 2026-04-18 08:23 | 48.37937 | 11.25070 | 7492 ft | 243 kts | 180° |
| 2026-04-18 08:23 | 48.36340 | 11.25640 | 7246 ft | 235 kts | 148° |
| 2026-04-18 08:23 | 48.35217 | 11.27344 | 7019 ft | 229 kts | 120° |
| 2026-04-18 08:24 | 48.34488 | 11.29432 | 6818 ft | 224 kts | 115° |
| 2026-04-18 08:24 | 48.33830 | 11.31528 | 6625 ft | 219 kts | 114° |
| 2026-04-18 08:24 | 48.33204 | 11.33600 | 6418 ft | 217 kts | 109° |
| 2026-04-18 08:24 | 48.33020 | 11.35813 | 6220 ft | 215 kts | 84° |
| 2026-04-18 08:25 | 48.33199 | 11.38043 | 6015 ft | 215 kts | 83° |
| 2026-04-18 08:25 | 48.33385 | 11.40266 | 5809 ft | 213 kts | 83° |
| 2026-04-18 08:25 | 48.33564 | 11.42460 | 5609 ft | 210 kts | 83° |
| 2026-04-18 08:25 | 48.33737 | 11.44602 | 5438 ft | 202 kts | 83° |
| 2026-04-18 08:26 | 48.33900 | 11.46645 | 5334 ft | 193 kts | 83° |
| 2026-04-18 08:26 | 48.34060 | 11.48635 | 5138 ft | 191 kts | 83° |
| 2026-04-18 08:26 | 48.34218 | 11.50611 | 4907 ft | 190 kts | 83° |
| 2026-04-18 08:26 | 48.34375 | 11.52580 | 4654 ft | 189 kts | 83° |
| 2026-04-18 08:27 | 48.34530 | 11.54522 | 4411 ft | 189 kts | 83° |
| 2026-04-18 08:27 | 48.34687 | 11.56499 | 4148 ft | 187 kts | 83° |
| 2026-04-18 08:27 | 48.34838 | 11.58416 | 3910 ft | 182 kts | 83° |
| 2026-04-18 08:27 | 48.34985 | 11.60269 | 3668 ft | 174 kts | 83° |
| 2026-04-18 08:28 | 48.35124 | 11.62032 | 3463 ft | 165 kts | 84° |
| 2026-04-18 08:28 | 48.35255 | 11.63675 | 3272 ft | 153 kts | 83° |
| 2026-04-18 08:28 | 48.35375 | 11.65200 | 3028 ft | 145 kts | 84° |
| 2026-04-18 08:28 | 48.35491 | 11.66703 | 2855 ft | 142 kts | 84° |
| 2026-04-18 08:29 | 48.35604 | 11.68149 | 2637 ft | 140 kts | 84° |
| 2026-04-18 08:29 | 48.35718 | 11.69617 | 2445 ft | 139 kts | 83° |
| 2026-04-18 08:29 | 48.35831 | 11.71062 | 2256 ft | 139 kts | 83° |
| 2026-04-18 08:29 | 48.35947 | 11.72502 | 2073 ft | 139 kts | 83° |
| 2026-04-18 08:30 | 48.36059 | 11.73941 | 1879 ft | 138 kts | 83° |
| 2026-04-18 08:30 | 48.36166 | 11.75375 | 1704 ft | 138 kts | 83° |
| 2026-04-18 08:30 | 48.36278 | 11.76806 | 1525 ft | 137 kts | 83° |
| 2026-04-18 08:30 | 48.36383 | 11.78132 | 1482 ft | 109 kts | 83° |
| 2026-04-18 08:31 | 48.36448 | 11.78997 | 1482 ft | 53 kts | 83° |
| 2026-04-18 08:31 | 48.36419 | 11.79366 | 1474 ft | 32 kts | 114° |
| 2026-04-18 08:31 | 48.36356 | 11.79583 | 1482 ft | 22 kts | 113° |
| 2026-04-18 08:31 | 48.36315 | 11.79725 | 1477 ft | 5 kts | 113° |
| 2026-04-18 08:32 | 48.36299 | 11.79766 | 1477 ft | 8 kts | 136° |
| 2026-04-18 08:32 | 48.36247 | 11.79767 | 1480 ft | 7 kts | 216° |
| 2026-04-18 08:32 | 48.36231 | 11.79705 | 1480 ft | 6 kts | 262° |
| 2026-04-18 08:32 | 48.36224 | 11.79596 | 1480 ft | 11 kts | 264° |
| 2026-04-18 08:33 | 48.36207 | 11.79492 | 1475 ft | 10 kts | 233° |
| 2026-04-18 08:33 | 48.36151 | 11.79470 | 1485 ft | 8 kts | 174° |
| 2026-04-18 08:33 | 48.36098 | 11.79478 | 1481 ft | 8 kts | 173° |
| 2026-04-18 08:33 | 48.36017 | 11.79493 | 1486 ft | 13 kts | 173° |
| 2026-04-18 08:34 | 48.35930 | 11.79508 | 1477 ft | 12 kts | 173° |
| 2026-04-18 08:34 | 48.35847 | 11.79521 | 1484 ft | 11 kts | 173° |
| 2026-04-18 08:34 | 48.35798 | 11.79581 | 1478 ft | 9 kts | 96° |
| 2026-04-18 08:34 | 48.35807 | 11.79703 | 1480 ft | 14 kts | 83° |
| 2026-04-18 08:35 | 48.35819 | 11.79857 | 1481 ft | 16 kts | 83° |
| 2026-04-18 08:35 | 48.35828 | 11.79987 | 1485 ft | 9 kts | 84° |
| 2026-04-18 08:35 | 48.35800 | 11.80062 | 1481 ft | 11 kts | 154° |
| 2026-04-18 08:35 | 48.35727 | 11.80077 | 1485 ft | 10 kts | 173° |
| 2026-04-18 08:36 | 48.35682 | 11.80090 | 1473 ft | 9 kts | 168° |
| 2026-04-18 08:36 | 48.35609 | 11.80106 | 1482 ft | 11 kts | 173° |
| 2026-04-18 08:36 | 48.35536 | 11.80119 | 1485 ft | 10 kts | 174° |
| 2026-04-18 08:36 | 48.35473 | 11.80129 | 1475 ft | 9 kts | 173° |
| 2026-04-18 08:37 | 48.35417 | 11.80138 | 1474 ft | 7 kts | 178° |
| 2026-04-18 08:37 | 48.35387 | 11.80096 | 1471 ft | 6 kts | 253° |
| 2026-04-18 08:37 | 48.35383 | 11.80044 | 1481 ft | 4 kts | 263° |
| 2026-04-18 08:37 | 48.35381 | 11.80025 | 1485 ft | 0 kts | 263° |
| 2026-04-18 08:42 | 48.35381 | 11.80024 | 1485 ft | 0 kts | 263° |